sensor_id;sensor_type;location;lat;lon;timestamp;P1;durP1;ratioP1;P2;durP2;ratioP2
53263;SDS011;39153;52.680;6.172;2022-10-20T00:00:55;11.30;;;6.00;;
53263;SDS011;39153;52.680;6.172;2022-10-20T00:03:21;9.38;;;5.55;;
53263;SDS011;39153;52.680;6.172;2022-10-20T00:05:48;8.93;;;5.45;;
53263;SDS011;39153;52.680;6.172;2022-10-20T00:08:14;13.50;;;6.22;;
53263;SDS011;39153;52.680;6.172;2022-10-20T00:10:40;11.27;;;6.25;;
53263;SDS011;39153;52.680;6.172;2022-10-20T00:13:06;10.90;;;5.57;;
53263;SDS011;39153;52.680;6.172;2022-10-20T00:15:32;13.70;;;5.90;;
53263;SDS011;39153;52.680;6.172;2022-10-20T00:17:57;12.82;;;6.60;;
53263;SDS011;39153;52.680;6.172;2022-10-20T00:20:23;15.32;;;6.00;;
53263;SDS011;39153;52.680;6.172;2022-10-20T00:22:49;9.35;;;5.43;;
53263;SDS011;39153;52.680;6.172;2022-10-20T00:25:14;12.02;;;5.55;;
53263;SDS011;39153;52.680;6.172;2022-10-20T00:27:40;11.07;;;5.72;;
53263;SDS011;39153;52.680;6.172;2022-10-20T00:30:06;13.27;;;5.78;;
53263;SDS011;39153;52.680;6.172;2022-10-20T00:32:32;11.77;;;5.72;;
53263;SDS011;39153;52.680;6.172;2022-10-20T00:34:58;12.75;;;5.68;;
53263;SDS011;39153;52.680;6.172;2022-10-20T00:37:23;9.18;;;5.60;;
53263;SDS011;39153;52.680;6.172;2022-10-20T00:39:49;12.90;;;5.93;;
53263;SDS011;39153;52.680;6.172;2022-10-20T00:42:15;9.30;;;5.07;;
53263;SDS011;39153;52.680;6.172;2022-10-20T00:44:50;11.98;;;5.78;;
53263;SDS011;39153;52.680;6.172;2022-10-20T00:50:22;9.15;;;5.20;;
53263;SDS011;39153;52.680;6.172;2022-10-20T00:52:52;14.45;;;5.65;;
53263;SDS011;39153;52.680;6.172;2022-10-20T00:55:21;9.30;;;5.38;;
53263;SDS011;39153;52.680;6.172;2022-10-20T00:57:57;9.50;;;5.75;;
53263;SDS011;39153;52.680;6.172;2022-10-20T01:00:24;8.95;;;5.03;;
53263;SDS011;39153;52.680;6.172;2022-10-20T01:02:51;12.70;;;5.72;;
53263;SDS011;39153;52.680;6.172;2022-10-20T01:05:18;9.18;;;5.35;;
53263;SDS011;39153;52.680;6.172;2022-10-20T01:07:45;11.10;;;5.70;;
53263;SDS011;39153;52.680;6.172;2022-10-20T01:10:11;10.23;;;5.65;;
53263;SDS011;39153;52.680;6.172;2022-10-20T01:18:03;10.55;;;4.75;;
53263;SDS011;39153;52.680;6.172;2022-10-20T01:21:37;9.82;;;5.30;;
53263;SDS011;39153;52.680;6.172;2022-10-20T01:29:34;13.75;;;5.20;;
53263;SDS011;39153;52.680;6.172;2022-10-20T01:32:27;10.10;;;5.22;;
53263;SDS011;39153;52.680;6.172;2022-10-20T01:35:04;12.82;;;5.35;;
53263;SDS011;39153;52.680;6.172;2022-10-20T01:37:50;10.45;;;5.32;;
53263;SDS011;39153;52.680;6.172;2022-10-20T01:40:28;11.40;;;5.30;;
53263;SDS011;39153;52.680;6.172;2022-10-20T01:42:59;13.93;;;5.38;;
53263;SDS011;39153;52.680;6.172;2022-10-20T01:45:29;13.73;;;5.82;;
53263;SDS011;39153;52.680;6.172;2022-10-20T01:47:58;10.10;;;5.50;;
53263;SDS011;39153;52.680;6.172;2022-10-20T01:50:28;14.90;;;5.30;;
53263;SDS011;39153;52.680;6.172;2022-10-20T01:52:57;10.52;;;5.38;;
53263;SDS011;39153;52.680;6.172;2022-10-20T01:55:24;12.75;;;5.25;;
53263;SDS011;39153;52.680;6.172;2022-10-20T01:58:03;12.00;;;5.22;;
53263;SDS011;39153;52.680;6.172;2022-10-20T02:00:31;11.85;;;5.65;;
53263;SDS011;39153;52.680;6.172;2022-10-20T02:06:06;9.57;;;5.25;;
53263;SDS011;39153;52.680;6.172;2022-10-20T02:08:46;11.50;;;6.07;;
53263;SDS011;39153;52.680;6.172;2022-10-20T02:14:09;14.27;;;5.32;;
53263;SDS011;39153;52.680;6.172;2022-10-20T02:16:57;10.68;;;5.20;;
53263;SDS011;39153;52.680;6.172;2022-10-20T02:19:26;11.23;;;5.32;;
53263;SDS011;39153;52.680;6.172;2022-10-20T02:21:56;10.30;;;5.32;;
53263;SDS011;39153;52.680;6.172;2022-10-20T02:24:22;13.75;;;5.43;;
53263;SDS011;39153;52.680;6.172;2022-10-20T02:26:52;11.35;;;5.90;;
53263;SDS011;39153;52.680;6.172;2022-10-20T02:29:21;11.25;;;5.18;;
53263;SDS011;39153;52.680;6.172;2022-10-20T02:31:51;15.63;;;5.53;;
53263;SDS011;39153;52.680;6.172;2022-10-20T02:34:17;9.82;;;5.10;;
53263;SDS011;39153;52.680;6.172;2022-10-20T02:36:43;10.15;;;4.85;;
53263;SDS011;39153;52.680;6.172;2022-10-20T02:39:09;11.13;;;6.03;;
53263;SDS011;39153;52.680;6.172;2022-10-20T02:41:35;13.77;;;5.75;;
53263;SDS011;39153;52.680;6.172;2022-10-20T02:44:01;9.93;;;4.88;;
53263;SDS011;39153;52.680;6.172;2022-10-20T02:46:27;14.82;;;5.90;;
53263;SDS011;39153;52.680;6.172;2022-10-20T02:48:53;10.45;;;5.55;;
53263;SDS011;39153;52.680;6.172;2022-10-20T02:51:18;10.70;;;5.20;;
53263;SDS011;39153;52.680;6.172;2022-10-20T02:53:44;8.60;;;5.55;;
53263;SDS011;39153;52.680;6.172;2022-10-20T02:56:10;9.85;;;5.05;;
53263;SDS011;39153;52.680;6.172;2022-10-20T02:58:36;9.80;;;5.47;;
53263;SDS011;39153;52.680;6.172;2022-10-20T03:01:02;11.73;;;5.70;;
53263;SDS011;39153;52.680;6.172;2022-10-20T03:03:28;9.32;;;5.68;;
53263;SDS011;39153;52.680;6.172;2022-10-20T03:05:54;9.02;;;5.18;;
53263;SDS011;39153;52.680;6.172;2022-10-20T03:08:19;8.68;;;5.15;;
53263;SDS011;39153;52.680;6.172;2022-10-20T03:10:45;13.07;;;5.10;;
53263;SDS011;39153;52.680;6.172;2022-10-20T03:13:11;12.38;;;6.15;;
53263;SDS011;39153;52.680;6.172;2022-10-20T03:15:38;8.82;;;5.13;;
53263;SDS011;39153;52.680;6.172;2022-10-20T03:18:04;10.48;;;5.38;;
53263;SDS011;39153;52.680;6.172;2022-10-20T03:20:30;11.77;;;5.18;;
53263;SDS011;39153;52.680;6.172;2022-10-20T03:22:55;9.35;;;5.30;;
53263;SDS011;39153;52.680;6.172;2022-10-20T03:25:21;10.63;;;5.78;;
53263;SDS011;39153;52.680;6.172;2022-10-20T03:27:47;12.18;;;5.47;;
53263;SDS011;39153;52.680;6.172;2022-10-20T03:30:12;9.68;;;5.82;;
53263;SDS011;39153;52.680;6.172;2022-10-20T03:32:38;11.40;;;6.05;;
53263;SDS011;39153;52.680;6.172;2022-10-20T03:35:04;9.68;;;5.97;;
53263;SDS011;39153;52.680;6.172;2022-10-20T03:37:30;11.75;;;6.00;;
53263;SDS011;39153;52.680;6.172;2022-10-20T03:39:55;10.07;;;5.75;;
53263;SDS011;39153;52.680;6.172;2022-10-20T03:42:21;12.23;;;5.90;;
53263;SDS011;39153;52.680;6.172;2022-10-20T03:44:47;9.88;;;5.63;;
53263;SDS011;39153;52.680;6.172;2022-10-20T03:47:12;8.80;;;5.65;;
53263;SDS011;39153;52.680;6.172;2022-10-20T03:49:38;12.43;;;5.93;;
53263;SDS011;39153;52.680;6.172;2022-10-20T03:52:04;14.05;;;5.78;;
53263;SDS011;39153;52.680;6.172;2022-10-20T03:54:30;10.52;;;5.88;;
53263;SDS011;39153;52.680;6.172;2022-10-20T03:56:56;11.00;;;6.15;;
53263;SDS011;39153;52.680;6.172;2022-10-20T03:59:22;13.07;;;6.10;;
53263;SDS011;39153;52.680;6.172;2022-10-20T04:01:47;10.35;;;5.82;;
53263;SDS011;39153;52.680;6.172;2022-10-20T04:04:13;11.45;;;6.07;;
53263;SDS011;39153;52.680;6.172;2022-10-20T04:06:39;11.63;;;5.88;;
53263;SDS011;39153;52.680;6.172;2022-10-20T04:09:05;13.75;;;6.82;;
53263;SDS011;39153;52.680;6.172;2022-10-20T04:11:31;10.88;;;6.38;;
53263;SDS011;39153;52.680;6.172;2022-10-20T04:13:57;11.95;;;5.97;;
53263;SDS011;39153;52.680;6.172;2022-10-20T04:16:22;11.82;;;6.57;;
53263;SDS011;39153;52.680;6.172;2022-10-20T04:18:50;11.68;;;7.18;;
53263;SDS011;39153;52.680;6.172;2022-10-20T04:21:16;10.30;;;6.40;;
53263;SDS011;39153;52.680;6.172;2022-10-20T04:23:42;11.90;;;6.82;;
53263;SDS011;39153;52.680;6.172;2022-10-20T04:26:11;14.20;;;6.70;;
53263;SDS011;39153;52.680;6.172;2022-10-20T04:28:38;14.20;;;6.85;;
53263;SDS011;39153;52.680;6.172;2022-10-20T04:31:04;14.57;;;7.38;;
53263;SDS011;39153;52.680;6.172;2022-10-20T04:33:30;14.05;;;6.90;;
53263;SDS011;39153;52.680;6.172;2022-10-20T04:35:58;10.73;;;6.72;;
53263;SDS011;39153;52.680;6.172;2022-10-20T04:38:24;11.60;;;7.35;;
53263;SDS011;39153;52.680;6.172;2022-10-20T04:40:53;14.75;;;7.43;;
53263;SDS011;39153;52.680;6.172;2022-10-20T04:43:20;14.07;;;7.32;;
53263;SDS011;39153;52.680;6.172;2022-10-20T04:45:46;15.80;;;7.50;;
53263;SDS011;39153;52.680;6.172;2022-10-20T04:48:11;13.85;;;7.55;;
53263;SDS011;39153;52.680;6.172;2022-10-20T04:50:37;14.48;;;7.38;;
53263;SDS011;39153;52.680;6.172;2022-10-20T04:53:03;15.20;;;7.53;;
53263;SDS011;39153;52.680;6.172;2022-10-20T04:55:28;15.00;;;8.35;;
53263;SDS011;39153;52.680;6.172;2022-10-20T04:57:54;12.98;;;7.60;;
53263;SDS011;39153;52.680;6.172;2022-10-20T05:00:19;14.18;;;7.82;;
53263;SDS011;39153;52.680;6.172;2022-10-20T05:02:45;15.63;;;8.10;;
53263;SDS011;39153;52.680;6.172;2022-10-20T05:05:11;13.27;;;8.75;;
53263;SDS011;39153;52.680;6.172;2022-10-20T05:07:36;12.75;;;7.75;;
53263;SDS011;39153;52.680;6.172;2022-10-20T05:10:02;14.98;;;9.10;;
53263;SDS011;39153;52.680;6.172;2022-10-20T05:12:28;16.00;;;8.73;;
53263;SDS011;39153;52.680;6.172;2022-10-20T05:14:54;14.70;;;9.00;;
53263;SDS011;39153;52.680;6.172;2022-10-20T05:17:19;13.93;;;8.85;;
53263;SDS011;39153;52.680;6.172;2022-10-20T05:19:45;15.50;;;8.55;;
53263;SDS011;39153;52.680;6.172;2022-10-20T05:22:10;13.88;;;10.18;;
53263;SDS011;39153;52.680;6.172;2022-10-20T05:24:36;16.52;;;10.00;;
53263;SDS011;39153;52.680;6.172;2022-10-20T05:27:02;16.63;;;10.02;;
53263;SDS011;39153;52.680;6.172;2022-10-20T05:29:28;15.23;;;9.95;;
53263;SDS011;39153;52.680;6.172;2022-10-20T05:31:53;18.95;;;10.98;;
53263;SDS011;39153;52.680;6.172;2022-10-20T05:34:19;16.52;;;10.40;;
53263;SDS011;39153;52.680;6.172;2022-10-20T05:36:45;16.17;;;10.50;;
53263;SDS011;39153;52.680;6.172;2022-10-20T05:39:10;15.05;;;10.23;;
53263;SDS011;39153;52.680;6.172;2022-10-20T05:41:36;15.90;;;10.52;;
53263;SDS011;39153;52.680;6.172;2022-10-20T05:44:03;14.38;;;10.25;;
53263;SDS011;39153;52.680;6.172;2022-10-20T05:46:31;15.90;;;10.70;;
53263;SDS011;39153;52.680;6.172;2022-10-20T05:48:59;15.48;;;10.85;;
53263;SDS011;39153;52.680;6.172;2022-10-20T05:51:28;16.20;;;10.43;;
53263;SDS011;39153;52.680;6.172;2022-10-20T05:53:55;18.23;;;11.15;;
53263;SDS011;39153;52.680;6.172;2022-10-20T05:56:22;16.85;;;10.82;;
53263;SDS011;39153;52.680;6.172;2022-10-20T05:58:48;18.58;;;11.10;;
53263;SDS011;39153;52.680;6.172;2022-10-20T06:03:49;18.65;;;11.95;;
53263;SDS011;39153;52.680;6.172;2022-10-20T06:06:24;17.15;;;11.23;;
53263;SDS011;39153;52.680;6.172;2022-10-20T06:08:52;19.52;;;12.00;;
53263;SDS011;39153;52.680;6.172;2022-10-20T06:11:18;19.60;;;11.68;;
53263;SDS011;39153;52.680;6.172;2022-10-20T06:13:44;22.73;;;12.20;;
53263;SDS011;39153;52.680;6.172;2022-10-20T06:16:11;19.02;;;12.13;;
53263;SDS011;39153;52.680;6.172;2022-10-20T06:18:41;18.73;;;11.68;;
53263;SDS011;39153;52.680;6.172;2022-10-20T06:21:11;18.17;;;12.20;;
53263;SDS011;39153;52.680;6.172;2022-10-20T06:23:42;17.55;;;11.55;;
53263;SDS011;39153;52.680;6.172;2022-10-20T06:26:12;20.60;;;12.25;;
53263;SDS011;39153;52.680;6.172;2022-10-20T06:28:41;19.33;;;12.43;;
53263;SDS011;39153;52.680;6.172;2022-10-20T06:31:24;19.10;;;12.73;;
53263;SDS011;39153;52.680;6.172;2022-10-20T06:33:51;18.38;;;12.02;;
53263;SDS011;39153;52.680;6.172;2022-10-20T06:36:18;17.65;;;12.52;;
53263;SDS011;39153;52.680;6.172;2022-10-20T06:38:45;19.20;;;12.18;;
53263;SDS011;39153;52.680;6.172;2022-10-20T06:41:13;22.95;;;12.18;;
53263;SDS011;39153;52.680;6.172;2022-10-20T06:43:40;16.30;;;11.85;;
53263;SDS011;39153;52.680;6.172;2022-10-20T06:46:07;19.27;;;12.80;;
53263;SDS011;39153;52.680;6.172;2022-10-20T06:48:35;19.80;;;13.40;;
53263;SDS011;39153;52.680;6.172;2022-10-20T06:51:05;19.83;;;12.55;;
53263;SDS011;39153;52.680;6.172;2022-10-20T06:53:39;20.92;;;13.38;;
53263;SDS011;39153;52.680;6.172;2022-10-20T06:56:07;20.30;;;13.25;;
53263;SDS011;39153;52.680;6.172;2022-10-20T06:58:36;18.60;;;12.23;;
53263;SDS011;39153;52.680;6.172;2022-10-20T07:01:06;19.23;;;12.95;;
53263;SDS011;39153;52.680;6.172;2022-10-20T07:03:34;19.25;;;12.77;;
53263;SDS011;39153;52.680;6.172;2022-10-20T07:06:01;21.58;;;13.13;;
53263;SDS011;39153;52.680;6.172;2022-10-20T07:08:29;19.55;;;12.05;;
53263;SDS011;39153;52.680;6.172;2022-10-20T07:11:00;21.08;;;13.48;;
53263;SDS011;39153;52.680;6.172;2022-10-20T07:13:52;19.90;;;12.82;;
53263;SDS011;39153;52.680;6.172;2022-10-20T07:16:19;17.25;;;12.80;;
53263;SDS011;39153;52.680;6.172;2022-10-20T07:18:46;20.75;;;14.02;;
53263;SDS011;39153;52.680;6.172;2022-10-20T07:21:13;19.13;;;12.15;;
53263;SDS011;39153;52.680;6.172;2022-10-20T07:23:41;18.50;;;13.20;;
53263;SDS011;39153;52.680;6.172;2022-10-20T07:28:32;18.63;;;12.90;;
53263;SDS011;39153;52.680;6.172;2022-10-20T07:31:06;20.67;;;12.35;;
53263;SDS011;39153;52.680;6.172;2022-10-20T07:33:34;17.70;;;12.40;;
53263;SDS011;39153;52.680;6.172;2022-10-20T07:36:00;22.63;;;14.00;;
53263;SDS011;39153;52.680;6.172;2022-10-20T07:38:26;20.05;;;13.30;;
53263;SDS011;39153;52.680;6.172;2022-10-20T07:40:52;18.98;;;13.07;;
53263;SDS011;39153;52.680;6.172;2022-10-20T07:43:17;17.85;;;12.73;;
53263;SDS011;39153;52.680;6.172;2022-10-20T07:45:43;18.25;;;13.43;;
53263;SDS011;39153;52.680;6.172;2022-10-20T07:48:09;21.48;;;13.80;;
53263;SDS011;39153;52.680;6.172;2022-10-20T07:50:35;19.80;;;12.95;;
53263;SDS011;39153;52.680;6.172;2022-10-20T07:53:02;17.75;;;12.82;;
53263;SDS011;39153;52.680;6.172;2022-10-20T07:55:30;18.83;;;13.18;;
53263;SDS011;39153;52.680;6.172;2022-10-20T07:57:56;20.58;;;13.68;;
53263;SDS011;39153;52.680;6.172;2022-10-20T08:00:22;17.63;;;13.40;;
53263;SDS011;39153;52.680;6.172;2022-10-20T08:02:47;18.00;;;13.70;;
53263;SDS011;39153;52.680;6.172;2022-10-20T08:05:13;17.45;;;13.88;;
53263;SDS011;39153;52.680;6.172;2022-10-20T08:07:39;17.50;;;12.85;;
53263;SDS011;39153;52.680;6.172;2022-10-20T08:10:05;23.88;;;13.82;;
53263;SDS011;39153;52.680;6.172;2022-10-20T08:12:32;21.13;;;12.95;;
53263;SDS011;39153;52.680;6.172;2022-10-20T08:14:58;19.05;;;13.68;;
53263;SDS011;39153;52.680;6.172;2022-10-20T08:17:23;18.92;;;14.10;;
53263;SDS011;39153;52.680;6.172;2022-10-20T08:19:50;20.13;;;13.82;;
53263;SDS011;39153;52.680;6.172;2022-10-20T08:22:16;18.50;;;13.75;;
53263;SDS011;39153;52.680;6.172;2022-10-20T08:24:43;21.30;;;14.00;;
53263;SDS011;39153;52.680;6.172;2022-10-20T08:27:10;20.20;;;13.68;;
53263;SDS011;39153;52.680;6.172;2022-10-20T08:29:36;17.17;;;13.43;;
53263;SDS011;39153;52.680;6.172;2022-10-20T08:32:02;16.65;;;13.80;;
53263;SDS011;39153;52.680;6.172;2022-10-20T08:34:28;15.90;;;13.05;;
53263;SDS011;39153;52.680;6.172;2022-10-20T08:36:54;16.05;;;12.82;;
53263;SDS011;39153;52.680;6.172;2022-10-20T08:39:20;17.55;;;12.88;;
53263;SDS011;39153;52.680;6.172;2022-10-20T08:41:46;17.58;;;12.60;;
53263;SDS011;39153;52.680;6.172;2022-10-20T08:44:17;16.50;;;12.45;;
53263;SDS011;39153;52.680;6.172;2022-10-20T08:46:47;19.52;;;12.82;;
53263;SDS011;39153;52.680;6.172;2022-10-20T08:49:32;15.70;;;12.60;;
53263;SDS011;39153;52.680;6.172;2022-10-20T08:51:59;16.10;;;12.52;;
53263;SDS011;39153;52.680;6.172;2022-10-20T08:54:25;14.88;;;12.52;;
53263;SDS011;39153;52.680;6.172;2022-10-20T08:56:51;17.17;;;12.57;;
53263;SDS011;39153;52.680;6.172;2022-10-20T09:01:48;16.15;;;12.15;;
53263;SDS011;39153;52.680;6.172;2022-10-20T09:04:21;15.30;;;12.73;;
53263;SDS011;39153;52.680;6.172;2022-10-20T09:06:56;17.15;;;11.75;;
53263;SDS011;39153;52.680;6.172;2022-10-20T09:09:25;15.52;;;12.30;;
53263;SDS011;39153;52.680;6.172;2022-10-20T09:11:54;16.23;;;12.27;;
53263;SDS011;39153;52.680;6.172;2022-10-20T09:14:32;17.42;;;11.75;;
53263;SDS011;39153;52.680;6.172;2022-10-20T09:17:00;14.80;;;11.82;;
53263;SDS011;39153;52.680;6.172;2022-10-20T09:19:27;17.88;;;11.63;;
53263;SDS011;39153;52.680;6.172;2022-10-20T09:21:54;15.48;;;10.70;;
53263;SDS011;39153;52.680;6.172;2022-10-20T09:24:22;14.35;;;10.85;;
53263;SDS011;39153;52.680;6.172;2022-10-20T09:26:51;15.85;;;9.73;;
53263;SDS011;39153;52.680;6.172;2022-10-20T09:29:18;14.07;;;9.75;;
53263;SDS011;39153;52.680;6.172;2022-10-20T09:31:46;15.25;;;10.00;;
53263;SDS011;39153;52.680;6.172;2022-10-20T09:34:30;13.02;;;9.85;;
53263;SDS011;39153;52.680;6.172;2022-10-20T09:37:02;12.40;;;9.45;;
53263;SDS011;39153;52.680;6.172;2022-10-20T09:42:12;15.02;;;9.93;;
53263;SDS011;39153;52.680;6.172;2022-10-20T09:44:53;14.45;;;9.85;;
53263;SDS011;39153;52.680;6.172;2022-10-20T09:47:22;15.15;;;9.68;;
53263;SDS011;39153;52.680;6.172;2022-10-20T09:49:55;12.13;;;10.52;;
53263;SDS011;39153;52.680;6.172;2022-10-20T09:52:25;14.07;;;10.18;;
53263;SDS011;39153;52.680;6.172;2022-10-20T09:54:58;13.23;;;9.50;;
53263;SDS011;39153;52.680;6.172;2022-10-20T09:57:27;13.15;;;9.65;;
53263;SDS011;39153;52.680;6.172;2022-10-20T09:59:54;13.98;;;9.75;;
53263;SDS011;39153;52.680;6.172;2022-10-20T10:04:48;14.63;;;9.90;;
53263;SDS011;39153;52.680;6.172;2022-10-20T10:10:03;12.98;;;9.77;;
53263;SDS011;39153;52.680;6.172;2022-10-20T10:12:30;12.50;;;9.82;;
53263;SDS011;39153;52.680;6.172;2022-10-20T10:14:58;11.43;;;8.65;;
53263;SDS011;39153;52.680;6.172;2022-10-20T10:19:58;12.77;;;9.70;;
53263;SDS011;39153;52.680;6.172;2022-10-20T10:22:25;13.63;;;9.60;;
53263;SDS011;39153;52.680;6.172;2022-10-20T10:24:51;12.48;;;10.30;;
53263;SDS011;39153;52.680;6.172;2022-10-20T10:27:27;12.70;;;10.40;;
53263;SDS011;39153;52.680;6.172;2022-10-20T10:29:55;12.38;;;9.48;;
53263;SDS011;39153;52.680;6.172;2022-10-20T10:32:45;10.88;;;8.70;;
53263;SDS011;39153;52.680;6.172;2022-10-20T10:35:25;10.52;;;8.88;;
53263;SDS011;39153;52.680;6.172;2022-10-20T10:38:04;11.65;;;10.00;;
53263;SDS011;39153;52.680;6.172;2022-10-20T10:43:04;12.98;;;10.05;;
53263;SDS011;39153;52.680;6.172;2022-10-20T10:45:57;13.80;;;9.57;;
53263;SDS011;39153;52.680;6.172;2022-10-20T11:00:12;12.55;;;9.73;;
53263;SDS011;39153;52.680;6.172;2022-10-20T11:10:31;14.00;;;9.52;;
53263;SDS011;39153;52.680;6.172;2022-10-20T11:13:40;14.25;;;10.55;;
53263;SDS011;39153;52.680;6.172;2022-10-20T11:23:48;13.60;;;10.88;;
53263;SDS011;39153;52.680;6.172;2022-10-20T11:26:39;14.05;;;10.65;;
53263;SDS011;39153;52.680;6.172;2022-10-20T11:29:19;13.23;;;11.00;;
53263;SDS011;39153;52.680;6.172;2022-10-20T11:31:59;14.10;;;11.07;;
53263;SDS011;39153;52.680;6.172;2022-10-20T11:34:45;12.77;;;11.30;;
53263;SDS011;39153;52.680;6.172;2022-10-20T11:37:21;14.60;;;10.98;;
53263;SDS011;39153;52.680;6.172;2022-10-20T11:42:36;15.55;;;12.10;;
53263;SDS011;39153;52.680;6.172;2022-10-20T11:45:25;15.82;;;11.50;;
53263;SDS011;39153;52.680;6.172;2022-10-20T11:47:57;15.52;;;11.93;;
53263;SDS011;39153;52.680;6.172;2022-10-20T11:50:35;16.33;;;11.52;;
53263;SDS011;39153;52.680;6.172;2022-10-20T11:56:02;16.50;;;12.52;;
53263;SDS011;39153;52.680;6.172;2022-10-20T11:58:59;15.55;;;11.98;;
53263;SDS011;39153;52.680;6.172;2022-10-20T12:15:47;19.75;;;14.20;;
53263;SDS011;39153;52.680;6.172;2022-10-20T12:18:17;18.40;;;14.07;;
53263;SDS011;39153;52.680;6.172;2022-10-20T12:20:50;18.85;;;14.82;;
53263;SDS011;39153;52.680;6.172;2022-10-20T12:34:54;19.77;;;16.08;;
53263;SDS011;39153;52.680;6.172;2022-10-20T12:37:28;20.23;;;16.05;;
53263;SDS011;39153;52.680;6.172;2022-10-20T12:42:32;20.63;;;18.15;;
53263;SDS011;39153;52.680;6.172;2022-10-20T12:45:03;24.52;;;16.83;;
53263;SDS011;39153;52.680;6.172;2022-10-20T12:47:30;24.02;;;18.02;;
53263;SDS011;39153;52.680;6.172;2022-10-20T12:52:32;20.70;;;18.50;;
53263;SDS011;39153;52.680;6.172;2022-10-20T12:59:59;24.60;;;17.80;;
53263;SDS011;39153;52.680;6.172;2022-10-20T13:15:26;29.05;;;19.40;;
53263;SDS011;39153;52.680;6.172;2022-10-20T13:17:59;24.63;;;19.10;;
53263;SDS011;39153;52.680;6.172;2022-10-20T13:20:38;28.77;;;19.90;;
53263;SDS011;39153;52.680;6.172;2022-10-20T13:23:28;26.25;;;22.88;;
53263;SDS011;39153;52.680;6.172;2022-10-20T13:28:44;32.53;;;20.33;;
53263;SDS011;39153;52.680;6.172;2022-10-20T13:34:15;31.52;;;21.38;;
53263;SDS011;39153;52.680;6.172;2022-10-20T13:37:45;29.77;;;21.63;;
53263;SDS011;39153;52.680;6.172;2022-10-20T13:50:34;32.30;;;23.00;;
53263;SDS011;39153;52.680;6.172;2022-10-20T13:53:08;30.52;;;22.80;;
53263;SDS011;39153;52.680;6.172;2022-10-20T13:58:31;36.47;;;25.50;;
53263;SDS011;39153;52.680;6.172;2022-10-20T14:01:19;34.13;;;24.90;;
53263;SDS011;39153;52.680;6.172;2022-10-20T14:03:48;35.00;;;25.00;;
53263;SDS011;39153;52.680;6.172;2022-10-20T14:06:36;31.73;;;23.20;;
53263;SDS011;39153;52.680;6.172;2022-10-20T14:09:14;35.05;;;25.10;;
53263;SDS011;39153;52.680;6.172;2022-10-20T14:11:43;35.22;;;24.83;;
53263;SDS011;39153;52.680;6.172;2022-10-20T14:14:19;37.10;;;24.92;;
53263;SDS011;39153;52.680;6.172;2022-10-20T14:16:49;33.60;;;24.77;;
53263;SDS011;39153;52.680;6.172;2022-10-20T14:19:19;33.53;;;27.42;;
53263;SDS011;39153;52.680;6.172;2022-10-20T14:21:47;34.50;;;24.80;;
53263;SDS011;39153;52.680;6.172;2022-10-20T14:27:02;39.55;;;27.08;;
53263;SDS011;39153;52.680;6.172;2022-10-20T14:29:30;36.92;;;24.88;;
53263;SDS011;39153;52.680;6.172;2022-10-20T14:31:57;37.92;;;27.05;;
53263;SDS011;39153;52.680;6.172;2022-10-20T14:34:27;40.38;;;26.48;;
53263;SDS011;39153;52.680;6.172;2022-10-20T14:36:55;42.05;;;28.67;;
53263;SDS011;39153;52.680;6.172;2022-10-20T14:39:28;42.13;;;28.90;;
53263;SDS011;39153;52.680;6.172;2022-10-20T14:42:01;41.72;;;31.33;;
53263;SDS011;39153;52.680;6.172;2022-10-20T14:44:29;41.13;;;26.10;;
53263;SDS011;39153;52.680;6.172;2022-10-20T14:46:56;42.33;;;28.25;;
53263;SDS011;39153;52.680;6.172;2022-10-20T14:51:54;40.85;;;27.70;;
53263;SDS011;39153;52.680;6.172;2022-10-20T14:54:24;40.50;;;28.50;;
53263;SDS011;39153;52.680;6.172;2022-10-20T14:59:32;43.50;;;28.08;;
53263;SDS011;39153;52.680;6.172;2022-10-20T15:02:15;46.38;;;29.33;;
53263;SDS011;39153;52.680;6.172;2022-10-20T15:04:45;46.53;;;29.58;;
53263;SDS011;39153;52.680;6.172;2022-10-20T15:07:16;43.08;;;29.27;;
53263;SDS011;39153;52.680;6.172;2022-10-20T15:09:53;47.53;;;35.95;;
53263;SDS011;39153;52.680;6.172;2022-10-20T15:12:37;43.35;;;32.67;;
53263;SDS011;39153;52.680;6.172;2022-10-20T15:17:36;39.92;;;32.53;;
53263;SDS011;39153;52.680;6.172;2022-10-20T15:22:57;40.80;;;30.13;;
53263;SDS011;39153;52.680;6.172;2022-10-20T15:25:26;47.10;;;35.30;;
53263;SDS011;39153;52.680;6.172;2022-10-20T15:27:54;44.72;;;34.65;;
53263;SDS011;39153;52.680;6.172;2022-10-20T15:30:21;46.03;;;32.15;;
53263;SDS011;39153;52.680;6.172;2022-10-20T15:32:48;48.45;;;32.38;;
53263;SDS011;39153;52.680;6.172;2022-10-20T15:35:16;46.67;;;36.65;;
53263;SDS011;39153;52.680;6.172;2022-10-20T15:37:48;49.35;;;33.25;;
53263;SDS011;39153;52.680;6.172;2022-10-20T15:40:18;48.63;;;36.67;;
53263;SDS011;39153;52.680;6.172;2022-10-20T15:42:44;46.15;;;36.92;;
53263;SDS011;39153;52.680;6.172;2022-10-20T15:45:20;51.83;;;34.67;;
53263;SDS011;39153;52.680;6.172;2022-10-20T15:47:48;46.28;;;36.30;;
53263;SDS011;39153;52.680;6.172;2022-10-20T15:50:14;47.55;;;33.78;;
53263;SDS011;39153;52.680;6.172;2022-10-20T15:52:40;48.67;;;38.95;;
53263;SDS011;39153;52.680;6.172;2022-10-20T15:57:53;50.20;;;40.17;;
53263;SDS011;39153;52.680;6.172;2022-10-20T16:00:20;48.08;;;39.00;;
53263;SDS011;39153;52.680;6.172;2022-10-20T16:02:47;46.30;;;36.13;;
53263;SDS011;39153;52.680;6.172;2022-10-20T16:05:14;52.05;;;42.00;;
53263;SDS011;39153;52.680;6.172;2022-10-20T16:07:41;52.88;;;37.45;;
53263;SDS011;39153;52.680;6.172;2022-10-20T16:10:07;54.60;;;42.70;;
53263;SDS011;39153;52.680;6.172;2022-10-20T16:12:35;53.20;;;42.28;;
53263;SDS011;39153;52.680;6.172;2022-10-20T16:15:02;52.83;;;37.67;;
53263;SDS011;39153;52.680;6.172;2022-10-20T16:17:28;57.88;;;44.53;;
53263;SDS011;39153;52.680;6.172;2022-10-20T16:19:54;59.08;;;43.83;;
53263;SDS011;39153;52.680;6.172;2022-10-20T16:22:20;59.78;;;48.05;;
53263;SDS011;39153;52.680;6.172;2022-10-20T16:24:46;67.20;;;50.42;;
53263;SDS011;39153;52.680;6.172;2022-10-20T16:27:12;58.80;;;41.08;;
53263;SDS011;39153;52.680;6.172;2022-10-20T16:29:38;60.45;;;47.80;;
53263;SDS011;39153;52.680;6.172;2022-10-20T16:32:03;63.83;;;49.40;;
53263;SDS011;39153;52.680;6.172;2022-10-20T16:34:29;59.20;;;46.05;;
53263;SDS011;39153;52.680;6.172;2022-10-20T16:36:55;66.40;;;51.58;;
53263;SDS011;39153;52.680;6.172;2022-10-20T16:39:21;67.93;;;51.05;;
53263;SDS011;39153;52.680;6.172;2022-10-20T16:41:46;60.38;;;47.67;;
53263;SDS011;39153;52.680;6.172;2022-10-20T16:44:12;59.40;;;41.90;;
53263;SDS011;39153;52.680;6.172;2022-10-20T16:46:38;65.60;;;49.22;;
53263;SDS011;39153;52.680;6.172;2022-10-20T16:49:04;65.45;;;49.03;;
53263;SDS011;39153;52.680;6.172;2022-10-20T16:51:30;61.17;;;47.95;;
53263;SDS011;39153;52.680;6.172;2022-10-20T16:53:56;62.22;;;50.38;;
53263;SDS011;39153;52.680;6.172;2022-10-20T16:56:23;70.88;;;53.75;;
53263;SDS011;39153;52.680;6.172;2022-10-20T16:58:49;61.75;;;50.13;;
53263;SDS011;39153;52.680;6.172;2022-10-20T17:01:16;67.70;;;52.28;;
53263;SDS011;39153;52.680;6.172;2022-10-20T17:03:44;68.38;;;53.10;;
53263;SDS011;39153;52.680;6.172;2022-10-20T17:06:11;66.13;;;51.00;;
53263;SDS011;39153;52.680;6.172;2022-10-20T17:08:37;69.43;;;51.90;;
53263;SDS011;39153;52.680;6.172;2022-10-20T17:11:11;65.90;;;44.65;;
53263;SDS011;39153;52.680;6.172;2022-10-20T17:13:41;70.13;;;51.03;;
53263;SDS011;39153;52.680;6.172;2022-10-20T17:16:08;72.68;;;52.60;;
53263;SDS011;39153;52.680;6.172;2022-10-20T17:18:34;71.28;;;51.00;;